createdAt,value
2019-03-31T00:00:36.078Z,1012.23
2019-03-31T00:01:36.018Z,1012.27
2019-03-31T00:02:36.013Z,1012.24
2019-03-31T00:03:35.988Z,1012.27
2019-03-31T00:04:35.987Z,1012.27
2019-03-31T00:05:37.472Z,1012.27
2019-03-31T00:06:35.959Z,1012.30
2019-03-31T00:07:35.947Z,1012.29
2019-03-31T00:08:35.945Z,1012.27
2019-03-31T00:09:35.929Z,1012.25
2019-03-31T00:10:35.953Z,1012.20
2019-03-31T00:11:35.915Z,1012.24
2019-03-31T00:12:35.892Z,1012.22
2019-03-31T00:13:35.893Z,1012.24
2019-03-31T00:14:35.877Z,1012.27
2019-03-31T00:15:35.863Z,1012.26
2019-03-31T00:16:35.875Z,1012.25
2019-03-31T00:17:35.843Z,1012.25
2019-03-31T00:18:35.829Z,1012.30
2019-03-31T00:19:35.818Z,1012.29
2019-03-31T00:20:35.807Z,1012.29
2019-03-31T00:21:35.835Z,1012.26
2019-03-31T00:22:35.788Z,1012.24
2019-03-31T00:23:35.775Z,1012.27
2019-03-31T00:24:35.813Z,1012.28
2019-03-31T00:25:35.780Z,1012.25
2019-03-31T00:26:35.745Z,1012.21
2019-03-31T00:27:35.770Z,1012.23
2019-03-31T00:28:35.725Z,1012.23
2019-03-31T00:29:35.712Z,1012.20
2019-03-31T00:30:35.703Z,1012.27
2019-03-31T00:31:35.730Z,1012.25
2019-03-31T00:32:35.678Z,1012.28
2019-03-31T00:33:35.712Z,1012.27
2019-03-31T00:34:35.656Z,1012.30
2019-03-31T00:35:35.646Z,1012.30
2019-03-31T00:36:35.634Z,1012.28
2019-03-31T00:37:35.623Z,1012.29
2019-03-31T00:38:35.640Z,1012.27
2019-03-31T00:39:35.602Z,1012.30
2019-03-31T00:40:35.594Z,1012.28
2019-03-31T00:41:35.580Z,1012.31
2019-03-31T00:42:35.568Z,1012.32
2019-03-31T00:43:35.597Z,1012.31
2019-03-31T00:44:35.547Z,1012.31
2019-03-31T00:45:35.535Z,1012.32
2019-03-31T00:46:35.525Z,1012.34
2019-03-31T00:47:35.515Z,1012.29
2019-03-31T00:48:35.507Z,1012.31
2019-03-31T00:49:35.529Z,1012.33
2019-03-31T00:50:35.481Z,1012.35
2019-03-31T00:51:35.488Z,1012.37
2019-03-31T00:52:35.461Z,1012.32
2019-03-31T00:53:35.448Z,1012.34
2019-03-31T00:54:35.444Z,1012.29
2019-03-31T00:55:35.451Z,1012.31
2019-03-31T00:56:35.419Z,1012.33
2019-03-31T00:57:35.410Z,1012.38
2019-03-31T00:58:35.391Z,1012.34
2019-03-31T00:59:35.382Z,1012.36
2019-03-31T01:00:35.394Z,1012.39
2019-03-31T01:01:36.794Z,1012.38
2019-03-31T01:02:35.350Z,1012.40
2019-03-31T01:03:35.336Z,1012.39
2019-03-31T01:04:35.326Z,1012.46
2019-03-31T01:05:35.342Z,1012.42
2019-03-31T01:06:35.310Z,1012.42
2019-03-31T01:07:35.292Z,1012.43
2019-03-31T01:08:35.282Z,1012.45
2019-03-31T01:09:35.279Z,1012.45
2019-03-31T01:10:35.287Z,1012.45
2019-03-31T01:11:35.250Z,1012.41
2019-03-31T01:12:35.242Z,1012.39
2019-03-31T01:13:35.230Z,1012.40
2019-03-31T01:14:35.216Z,1012.44
2019-03-31T01:15:35.243Z,1012.44
2019-03-31T01:16:35.195Z,1012.44
2019-03-31T01:17:35.183Z,1012.50
2019-03-31T01:18:35.173Z,1012.48
2019-03-31T01:19:35.161Z,1012.51
2019-03-31T01:20:35.149Z,1012.58
2019-03-31T01:21:35.177Z,1012.51
2019-03-31T01:22:35.129Z,1012.53
2019-03-31T01:23:35.119Z,1012.52
2019-03-31T01:24:35.107Z,1012.49
2019-03-31T01:25:35.100Z,1012.52
2019-03-31T01:26:35.085Z,1012.50
2019-03-31T01:27:35.113Z,1012.52
2019-03-31T01:28:35.066Z,1012.53
2019-03-31T01:29:35.054Z,1012.52
2019-03-31T01:30:35.042Z,1012.56
2019-03-31T01:31:35.031Z,1012.56
2019-03-31T01:32:35.021Z,1012.55
2019-03-31T01:33:35.051Z,1012.49
2019-03-31T01:34:35.001Z,1012.54
2019-03-31T01:35:34.990Z,1012.55
2019-03-31T01:36:34.982Z,1012.55
2019-03-31T01:37:34.978Z,1012.55
2019-03-31T01:38:34.956Z,1012.58
2019-03-31T01:39:34.983Z,1012.56
2019-03-31T01:40:34.933Z,1012.60
2019-03-31T01:41:34.923Z,1012.61
2019-03-31T01:42:34.911Z,1012.58
2019-03-31T01:43:34.902Z,1012.61
2019-03-31T01:44:34.892Z,1012.62
2019-03-31T01:45:34.907Z,1012.60
2019-03-31T01:46:34.870Z,1012.63
2019-03-31T01:47:34.862Z,1012.60
2019-03-31T01:48:34.848Z,1012.60
2019-03-31T01:49:34.836Z,1012.56
2019-03-31T01:50:34.850Z,1012.55
2019-03-31T01:51:34.813Z,1012.58
2019-03-31T01:52:34.805Z,1012.55
2019-03-31T01:53:34.793Z,1012.58
2019-03-31T01:54:34.781Z,1012.59
2019-03-31T01:55:34.814Z,1012.65
2019-03-31T01:56:34.761Z,1012.66
2019-03-31T01:57:34.747Z,1012.69
2019-03-31T01:58:34.738Z,1012.71
2019-03-31T01:59:34.727Z,1012.70
2019-03-31T02:00:34.716Z,1012.72
2019-03-31T02:01:34.744Z,1012.71
2019-03-31T02:02:34.693Z,1012.72
2019-03-31T02:03:34.688Z,1012.72
2019-03-31T02:04:34.672Z,1012.70
2019-03-31T02:05:34.664Z,1012.68
2019-03-31T02:06:34.649Z,1012.71
2019-03-31T02:07:34.674Z,1012.71
2019-03-31T02:08:34.702Z,1012.72
2019-03-31T02:09:34.615Z,1012.70
2019-03-31T02:10:34.606Z,1012.69
2019-03-31T02:11:34.595Z,1012.69
2019-03-31T02:12:34.585Z,1012.71
2019-03-31T02:13:34.612Z,1012.72
2019-03-31T02:14:34.559Z,1012.74
2019-03-31T02:15:34.550Z,1012.75
2019-03-31T02:16:34.539Z,1012.74
2019-03-31T02:17:34.531Z,1012.73
2019-03-31T02:18:34.516Z,1012.76
2019-03-31T02:19:34.530Z,1012.74
2019-03-31T02:20:34.494Z,1012.74
2019-03-31T02:21:34.483Z,1012.74
2019-03-31T02:22:34.473Z,1012.74
2019-03-31T02:23:34.461Z,1012.74
2019-03-31T02:24:34.488Z,1012.75
2019-03-31T02:25:34.439Z,1012.75
2019-03-31T02:26:34.429Z,1012.73
2019-03-31T02:27:34.420Z,1012.73
2019-03-31T02:28:34.406Z,1012.72
2019-03-31T02:29:34.396Z,1012.72
2019-03-31T02:30:34.425Z,1012.72
2019-03-31T02:31:34.374Z,1012.75
2019-03-31T02:32:34.364Z,1012.72
2019-03-31T02:33:34.351Z,1012.73
2019-03-31T02:34:34.340Z,1012.73
2019-03-31T02:35:34.332Z,1012.75
2019-03-31T02:36:34.358Z,1012.73
2019-03-31T02:37:34.309Z,1012.72
2019-03-31T02:38:34.297Z,1012.74
2019-03-31T02:39:34.287Z,1012.75
2019-03-31T02:40:34.278Z,1012.76
2019-03-31T02:41:34.263Z,1012.77
2019-03-31T02:42:34.294Z,1012.73
2019-03-31T02:43:34.257Z,1012.76
2019-03-31T02:44:34.230Z,1012.74
2019-03-31T02:45:34.221Z,1012.73
2019-03-31T02:46:34.208Z,1012.74
2019-03-31T02:47:34.199Z,1012.77
2019-03-31T02:48:34.212Z,1012.73
2019-03-31T02:49:34.177Z,1012.74
2019-03-31T02:50:34.161Z,1012.77
2019-03-31T02:51:34.157Z,1012.76
2019-03-31T02:52:34.144Z,1012.77
2019-03-31T02:53:34.156Z,1012.74
2019-03-31T02:54:34.121Z,1012.79
2019-03-31T02:55:34.109Z,1012.76
2019-03-31T02:56:34.127Z,1012.78
2019-03-31T02:57:34.086Z,1012.79
2019-03-31T02:58:34.112Z,1012.79
2019-03-31T02:59:34.068Z,1012.79
2019-03-31T03:00:34.057Z,1012.79
2019-03-31T03:01:34.046Z,1012.79
2019-03-31T03:02:42.050Z,1012.82
2019-03-31T03:03:35.054Z,1012.85
2019-03-31T03:04:34.012Z,1012.87
2019-03-31T03:05:33.998Z,1012.89
2019-03-31T03:06:33.991Z,1012.90
2019-03-31T03:07:33.976Z,1012.92
2019-03-31T03:08:33.966Z,1012.86
2019-03-31T03:09:33.979Z,1012.92
2019-03-31T03:10:34.011Z,1012.96
2019-03-31T03:11:33.951Z,1012.97
2019-03-31T03:12:33.922Z,1012.95
2019-03-31T03:13:33.912Z,1012.93
2019-03-31T03:14:33.923Z,1012.94
2019-03-31T03:15:33.904Z,1012.94
2019-03-31T03:16:33.879Z,1012.93
2019-03-31T03:17:33.867Z,1012.96
2019-03-31T03:18:33.855Z,1012.95
2019-03-31T03:19:33.909Z,1012.99
2019-03-31T03:20:33.849Z,1012.95
2019-03-31T03:21:33.864Z,1012.92
2019-03-31T03:22:33.818Z,1012.98
2019-03-31T03:23:33.809Z,1013.00
2019-03-31T03:24:33.794Z,1013.00
2019-03-31T03:25:33.940Z,1013.01
2019-03-31T03:26:33.780Z,1013.01
2019-03-31T03:27:33.760Z,1013.00
2019-03-31T03:28:33.751Z,1013.05
2019-03-31T03:29:33.736Z,1013.04
2019-03-31T03:30:33.872Z,1013.06
2019-03-31T03:31:33.724Z,1013.02
2019-03-31T03:32:33.704Z,1013.04
2019-03-31T03:33:33.701Z,1013.05
2019-03-31T03:34:33.942Z,1013.06
2019-03-31T03:35:33.673Z,1013.04
2019-03-31T03:36:33.687Z,1013.11
2019-03-31T03:37:33.650Z,1013.04
2019-03-31T03:38:33.639Z,1013.04
2019-03-31T03:39:33.629Z,1013.08
2019-03-31T03:40:33.628Z,1013.12
2019-03-31T03:41:33.647Z,1013.15
2019-03-31T03:42:33.599Z,1013.15
2019-03-31T03:43:33.588Z,1013.13
2019-03-31T03:44:33.575Z,1013.13
2019-03-31T03:45:33.566Z,1013.08
2019-03-31T03:46:33.556Z,1013.11
2019-03-31T03:47:33.574Z,1013.06
2019-03-31T03:48:33.539Z,1013.14
2019-03-31T03:49:33.523Z,1013.15
2019-03-31T03:50:33.513Z,1013.16
2019-03-31T03:51:33.500Z,1013.15
2019-03-31T03:52:33.674Z,1013.18
2019-03-31T03:53:33.481Z,1013.22
2019-03-31T03:54:33.478Z,1013.18
2019-03-31T03:55:33.461Z,1013.20
2019-03-31T03:56:33.449Z,1013.19
2019-03-31T03:57:33.448Z,1013.22
2019-03-31T03:58:33.452Z,1013.21
2019-03-31T03:59:33.425Z,1013.23
2019-03-31T04:00:33.407Z,1013.26
2019-03-31T04:01:33.416Z,1013.30
2019-03-31T04:02:33.524Z,1013.28
2019-03-31T04:03:33.415Z,1013.31
2019-03-31T04:04:33.369Z,1013.31
2019-03-31T04:05:33.354Z,1013.31
2019-03-31T04:06:33.344Z,1013.35
2019-03-31T04:07:33.344Z,1013.34
2019-03-31T04:08:33.323Z,1013.37
2019-03-31T04:09:33.337Z,1013.35
2019-03-31T04:10:33.300Z,1013.33
2019-03-31T04:11:33.290Z,1013.30
2019-03-31T04:12:33.282Z,1013.32
2019-03-31T04:13:33.270Z,1013.39
2019-03-31T04:14:33.286Z,1013.37
2019-03-31T04:15:33.249Z,1013.41
2019-03-31T04:16:33.236Z,1013.44
2019-03-31T04:17:33.226Z,1013.45
2019-03-31T04:18:33.222Z,1013.49
2019-03-31T04:19:33.241Z,1013.50
2019-03-31T04:20:33.211Z,1013.50
2019-03-31T04:21:33.184Z,1013.51
2019-03-31T04:22:33.174Z,1013.54
2019-03-31T04:23:33.168Z,1013.53
2019-03-31T04:24:33.163Z,1013.53
2019-03-31T04:25:33.169Z,1013.57
2019-03-31T04:26:33.137Z,1013.59
2019-03-31T04:27:33.117Z,1013.56
2019-03-31T04:28:33.126Z,1013.58
2019-03-31T04:29:33.099Z,1013.53
2019-03-31T04:30:33.123Z,1013.52
2019-03-31T04:31:33.078Z,1013.51
2019-03-31T04:32:33.066Z,1013.54
2019-03-31T04:33:49.464Z,1013.49
2019-03-31T04:34:34.042Z,1013.53
2019-03-31T04:35:33.032Z,1013.54
2019-03-31T04:36:33.053Z,1013.56
2019-03-31T04:37:33.019Z,1013.54
2019-03-31T04:38:32.999Z,1013.57
2019-03-31T04:39:32.987Z,1013.60
2019-03-31T04:40:32.978Z,1013.61
2019-03-31T04:41:33.002Z,1013.59
2019-03-31T04:42:32.955Z,1013.62
2019-03-31T04:43:32.944Z,1013.65
2019-03-31T04:44:32.941Z,1013.67
2019-03-31T04:45:32.923Z,1013.65
2019-03-31T04:46:32.910Z,1013.65
2019-03-31T04:47:32.924Z,1013.71
2019-03-31T04:48:32.889Z,1013.71
2019-03-31T04:49:32.880Z,1013.75
2019-03-31T04:50:32.867Z,1013.69
2019-03-31T04:51:32.857Z,1013.71
2019-03-31T04:52:32.873Z,1013.79
2019-03-31T04:53:32.836Z,1013.83
2019-03-31T04:54:32.823Z,1013.77
2019-03-31T04:55:32.812Z,1013.82
2019-03-31T04:56:32.800Z,1013.81
2019-03-31T04:57:32.824Z,1013.85
2019-03-31T04:58:32.778Z,1013.83
2019-03-31T04:59:32.768Z,1013.86
2019-03-31T05:00:32.757Z,1013.85
2019-03-31T05:01:32.750Z,1013.88
2019-03-31T05:02:32.735Z,1013.91
2019-03-31T05:03:32.750Z,1013.93
2019-03-31T05:04:32.715Z,1013.95
2019-03-31T05:05:32.703Z,1013.94
2019-03-31T05:06:32.691Z,1013.97
2019-03-31T05:07:32.681Z,1013.96
2019-03-31T05:08:32.708Z,1013.99
2019-03-31T05:09:32.659Z,1013.99
2019-03-31T05:10:32.649Z,1013.99
2019-03-31T05:11:32.638Z,1014.04
2019-03-31T05:12:32.627Z,1014.07
2019-03-31T05:13:32.615Z,1014.08
2019-03-31T05:14:32.629Z,1014.11
2019-03-31T05:15:32.594Z,1014.15
2019-03-31T05:16:32.583Z,1014.13
2019-03-31T05:17:35.605Z,1014.14
2019-03-31T05:18:32.561Z,1014.15
2019-03-31T05:19:32.578Z,1014.25
2019-03-31T05:20:32.539Z,1014.26
2019-03-31T05:21:32.528Z,1014.29
2019-03-31T05:22:32.520Z,1014.33
2019-03-31T05:23:32.506Z,1014.37
2019-03-31T05:24:32.521Z,1014.40
2019-03-31T05:25:32.483Z,1014.43
2019-03-31T05:26:32.473Z,1014.44
2019-03-31T05:27:32.462Z,1014.40
2019-03-31T05:28:32.451Z,1014.45
2019-03-31T05:29:32.477Z,1014.48
2019-03-31T05:30:32.428Z,1014.48
2019-03-31T05:31:32.417Z,1014.49
2019-03-31T05:32:32.407Z,1014.52
2019-03-31T05:33:32.395Z,1014.60
2019-03-31T05:34:32.387Z,1014.61
2019-03-31T05:35:32.397Z,1014.68
2019-03-31T05:36:32.365Z,1014.68
2019-03-31T05:37:32.351Z,1014.71
2019-03-31T05:38:32.340Z,1014.73
2019-03-31T05:39:32.332Z,1014.75
2019-03-31T05:40:32.348Z,1014.83
2019-03-31T05:41:32.309Z,1014.78
2019-03-31T05:42:32.295Z,1014.86
2019-03-31T05:43:32.287Z,1014.84
2019-03-31T05:44:32.276Z,1014.90
2019-03-31T05:45:32.300Z,1014.89
2019-03-31T05:46:32.251Z,1014.98
2019-03-31T05:47:32.241Z,1014.96
2019-03-31T05:48:32.232Z,1014.95
2019-03-31T05:49:32.221Z,1014.96
2019-03-31T05:50:32.207Z,1014.99
2019-03-31T05:51:32.224Z,1014.99
2019-03-31T05:52:32.187Z,1014.99
2019-03-31T05:53:32.176Z,1015.01
2019-03-31T05:54:32.166Z,1015.02
2019-03-31T05:55:32.156Z,1015.05
2019-03-31T05:56:32.182Z,1015.01
2019-03-31T05:57:32.139Z,1015.09
2019-03-31T05:58:32.118Z,1015.10
2019-03-31T05:59:32.108Z,1015.12
2019-03-31T06:00:32.099Z,1015.15
2019-03-31T06:01:32.088Z,1015.13
2019-03-31T06:02:32.099Z,1015.13
2019-03-31T06:03:32.066Z,1015.16
2019-03-31T06:04:33.515Z,1015.12
2019-03-31T06:05:32.042Z,1015.17
2019-03-31T06:06:32.032Z,1015.17
2019-03-31T06:07:32.048Z,1015.21
2019-03-31T06:08:32.012Z,1015.20
2019-03-31T06:09:31.999Z,1015.22
2019-03-31T06:10:31.988Z,1015.20
2019-03-31T06:11:31.977Z,1015.28
2019-03-31T06:12:31.990Z,1015.25
2019-03-31T06:13:31.957Z,1015.33
2019-03-31T06:14:31.945Z,1015.26
2019-03-31T06:15:31.961Z,1015.27
2019-03-31T06:16:31.922Z,1015.30
2019-03-31T06:17:31.946Z,1015.31
2019-03-31T06:18:31.899Z,1015.33
2019-03-31T06:19:31.888Z,1015.32
2019-03-31T06:20:31.877Z,1015.32
2019-03-31T06:21:31.866Z,1015.35
2019-03-31T06:22:31.854Z,1015.36
2019-03-31T06:23:31.871Z,1015.41
2019-03-31T06:24:31.833Z,1015.39
2019-03-31T06:25:31.859Z,1015.39
2019-03-31T06:26:31.819Z,1015.38
2019-03-31T06:27:31.801Z,1015.44
2019-03-31T06:28:31.792Z,1015.44
2019-03-31T06:29:31.783Z,1015.49
2019-03-31T06:30:31.767Z,1015.52
2019-03-31T06:31:31.781Z,1015.53
2019-03-31T06:32:31.745Z,1015.52
2019-03-31T06:33:31.735Z,1015.53
2019-03-31T06:34:31.724Z,1015.56
2019-03-31T06:35:31.714Z,1015.58
2019-03-31T06:36:31.725Z,1015.57
2019-03-31T06:37:31.691Z,1015.60
2019-03-31T06:38:31.680Z,1015.64
2019-03-31T06:39:34.234Z,1015.66
2019-03-31T06:40:31.659Z,1015.67
2019-03-31T06:41:31.682Z,1015.66
2019-03-31T06:42:31.639Z,1015.68
2019-03-31T06:43:31.625Z,1015.67
2019-03-31T06:44:31.613Z,1015.62
2019-03-31T06:45:31.603Z,1015.62
2019-03-31T06:46:31.594Z,1015.65
2019-03-31T06:47:31.619Z,1015.58
2019-03-31T06:48:31.570Z,1015.61
2019-03-31T06:49:31.561Z,1015.64
2019-03-31T06:50:31.550Z,1015.63
2019-03-31T06:51:31.540Z,1015.61
2019-03-31T06:52:31.527Z,1015.64
2019-03-31T06:53:31.647Z,1015.62
2019-03-31T06:54:31.506Z,1015.68
2019-03-31T06:55:31.495Z,1015.61
2019-03-31T06:56:31.485Z,1015.64
2019-03-31T06:57:31.472Z,1015.68
2019-03-31T06:58:31.486Z,1015.71
2019-03-31T06:59:31.481Z,1015.68
2019-03-31T07:00:31.440Z,1015.73
2019-03-31T07:01:31.434Z,1015.71
2019-03-31T07:02:31.421Z,1015.74
2019-03-31T07:03:31.445Z,1015.74
2019-03-31T07:04:31.401Z,1015.71
2019-03-31T07:05:31.427Z,1015.72
2019-03-31T07:06:31.381Z,1015.72
2019-03-31T07:07:31.368Z,1015.75
2019-03-31T07:08:31.410Z,1015.72
2019-03-31T07:09:31.386Z,1015.74
2019-03-31T07:10:31.393Z,1015.76
2019-03-31T07:11:31.382Z,1015.78
2019-03-31T07:12:31.317Z,1015.72
2019-03-31T07:13:31.305Z,1015.80
2019-03-31T07:14:31.294Z,1015.80
2019-03-31T07:15:31.307Z,1015.82
2019-03-31T07:16:31.272Z,1015.86
2019-03-31T07:17:31.264Z,1015.86
2019-03-31T07:18:31.252Z,1015.85
2019-03-31T07:19:31.240Z,1015.90
2019-03-31T07:20:31.254Z,1015.92
2019-03-31T07:21:31.222Z,1015.91
2019-03-31T07:22:31.210Z,1015.95
2019-03-31T07:23:31.199Z,1015.98
2019-03-31T07:24:31.188Z,1015.96
2019-03-31T07:25:31.202Z,1015.99
2019-03-31T07:26:31.191Z,1015.97
2019-03-31T07:27:31.198Z,1016.02
2019-03-31T07:28:31.149Z,1015.97
2019-03-31T07:29:31.135Z,1016.00
2019-03-31T07:30:31.152Z,1016.06
2019-03-31T07:31:31.114Z,1016.07
2019-03-31T07:32:31.103Z,1016.07
2019-03-31T07:33:31.091Z,1016.10
2019-03-31T07:34:31.082Z,1016.09
2019-03-31T07:35:31.093Z,1016.09
2019-03-31T07:36:31.064Z,1016.09
2019-03-31T07:37:31.048Z,1016.11
2019-03-31T07:38:38.880Z,1016.20
2019-03-31T07:39:32.206Z,1016.22
2019-03-31T07:40:31.424Z,1016.23
2019-03-31T07:41:31.126Z,1016.25
2019-03-31T07:42:31.067Z,1016.21
2019-03-31T07:43:30.984Z,1016.24
2019-03-31T07:44:31.016Z,1016.29
2019-03-31T07:45:30.995Z,1016.23
2019-03-31T07:46:30.951Z,1016.27
2019-03-31T07:47:30.943Z,1016.35
2019-03-31T07:48:30.934Z,1016.36
2019-03-31T07:49:30.916Z,1016.33
2019-03-31T07:50:30.907Z,1016.38
2019-03-31T07:51:30.922Z,1016.40
2019-03-31T07:52:30.885Z,1016.35
2019-03-31T07:53:30.876Z,1016.40
2019-03-31T07:54:30.862Z,1016.41
2019-03-31T07:55:30.931Z,1016.41
2019-03-31T07:56:30.877Z,1016.42
2019-03-31T07:57:30.836Z,1016.41
2019-03-31T07:58:30.818Z,1016.42
2019-03-31T07:59:30.859Z,1016.43
2019-03-31T08:00:30.798Z,1016.47
2019-03-31T08:01:30.822Z,1016.49
2019-03-31T08:02:30.775Z,1016.45
2019-03-31T08:03:30.765Z,1016.49
2019-03-31T08:04:30.754Z,1016.48
2019-03-31T08:05:33.417Z,1016.48
2019-03-31T08:06:30.733Z,1016.52
2019-03-31T08:07:30.760Z,1016.52
2019-03-31T08:08:30.710Z,1016.51
2019-03-31T08:09:30.701Z,1016.52
2019-03-31T08:10:30.690Z,1016.51
2019-03-31T08:11:30.680Z,1016.53
2019-03-31T08:12:30.669Z,1016.55
2019-03-31T08:13:30.679Z,1016.60
2019-03-31T08:14:30.650Z,1016.62
2019-03-31T08:15:30.635Z,1016.59
2019-03-31T08:16:30.627Z,1016.62
2019-03-31T08:17:30.614Z,1016.60
2019-03-31T08:18:30.627Z,1016.65
2019-03-31T08:19:30.592Z,1016.65
2019-03-31T08:20:30.579Z,1016.71
2019-03-31T08:21:30.569Z,1016.69
2019-03-31T08:22:30.559Z,1016.69
2019-03-31T08:23:30.572Z,1016.70
2019-03-31T08:24:30.536Z,1016.75
2019-03-31T08:25:30.530Z,1016.75
2019-03-31T08:26:30.514Z,1016.77
2019-03-31T08:27:30.505Z,1016.79
2019-03-31T08:28:30.529Z,1016.82
2019-03-31T08:29:30.482Z,1016.78
2019-03-31T08:30:30.477Z,1016.83
2019-03-31T08:31:30.460Z,1016.86
2019-03-31T08:32:30.450Z,1016.90
2019-03-31T08:33:30.441Z,1016.87
2019-03-31T08:34:30.455Z,1016.83
2019-03-31T08:35:30.421Z,1016.83
2019-03-31T08:36:30.408Z,1016.90
2019-03-31T08:37:30.395Z,1016.87
2019-03-31T08:38:30.385Z,1016.84
2019-03-31T08:39:30.411Z,1016.85
2019-03-31T08:40:30.370Z,1016.89
2019-03-31T08:41:30.373Z,1016.87
2019-03-31T08:42:30.342Z,1016.87
2019-03-31T08:43:30.331Z,1016.92
2019-03-31T08:44:30.330Z,1016.95
2019-03-31T08:45:30.660Z,1016.94
2019-03-31T08:46:30.299Z,1016.95
2019-03-31T08:47:30.292Z,1016.91
2019-03-31T08:48:30.282Z,1017.00
2019-03-31T08:49:30.270Z,1016.99
2019-03-31T08:50:30.279Z,1017.06
2019-03-31T08:51:30.261Z,1017.01
2019-03-31T08:52:30.239Z,1017.01
2019-03-31T08:53:30.232Z,1017.04
2019-03-31T08:54:30.214Z,1017.05
2019-03-31T08:55:30.226Z,1017.08
2019-03-31T08:56:30.193Z,1017.07
2019-03-31T08:57:30.181Z,1017.09
2019-03-31T08:58:30.226Z,1017.09
2019-03-31T08:59:30.186Z,1017.12
2019-03-31T09:00:30.174Z,1017.14
2019-03-31T09:01:30.138Z,1017.13
2019-03-31T09:02:30.128Z,1017.13
2019-03-31T09:03:30.115Z,1017.18
2019-03-31T09:04:30.108Z,1017.14
2019-03-31T09:05:30.119Z,1017.13
2019-03-31T09:06:30.083Z,1017.13
2019-03-31T09:07:30.075Z,1017.13
2019-03-31T09:08:30.062Z,1017.13
2019-03-31T09:09:30.051Z,1017.20
2019-03-31T09:10:30.074Z,1017.13
2019-03-31T09:11:30.030Z,1017.16
2019-03-31T09:12:30.017Z,1017.13
2019-03-31T09:13:30.010Z,1017.16
2019-03-31T09:14:29.995Z,1017.19
2019-03-31T09:15:30.026Z,1017.16
2019-03-31T09:16:29.974Z,1017.17
2019-03-31T09:17:29.964Z,1017.14
2019-03-31T09:18:29.960Z,1017.17
2019-03-31T09:19:29.943Z,1017.17
2019-03-31T09:20:29.930Z,1017.22
2019-03-31T09:21:29.955Z,1017.18
2019-03-31T09:22:29.909Z,1017.19
2019-03-31T09:23:29.898Z,1017.22
2019-03-31T09:24:29.888Z,1017.23
2019-03-31T09:25:29.877Z,1017.20
2019-03-31T09:26:29.865Z,1017.18
2019-03-31T09:27:29.882Z,1017.24
2019-03-31T09:28:29.846Z,1017.25
2019-03-31T09:29:29.833Z,1017.23
2019-03-31T09:30:29.864Z,1017.28
2019-03-31T09:31:29.813Z,1017.33
2019-03-31T09:32:29.837Z,1017.33
2019-03-31T09:33:29.795Z,1017.35
2019-03-31T09:34:29.779Z,1017.37
2019-03-31T09:35:29.802Z,1017.37
2019-03-31T09:36:29.758Z,1017.44
2019-03-31T09:37:29.745Z,1017.43
2019-03-31T09:38:29.762Z,1017.43
2019-03-31T09:39:29.726Z,1017.42
2019-03-31T09:40:29.717Z,1017.39
2019-03-31T09:41:29.703Z,1017.44
2019-03-31T09:42:29.697Z,1017.43
2019-03-31T09:43:29.718Z,1017.47
2019-03-31T09:44:30.410Z,1017.47
2019-03-31T09:45:29.662Z,1017.43
2019-03-31T09:46:29.651Z,1017.51
2019-03-31T09:47:29.640Z,1017.46
2019-03-31T09:48:29.629Z,1017.51
2019-03-31T09:49:29.654Z,1017.45
2019-03-31T09:50:29.612Z,1017.51
2019-03-31T09:51:29.595Z,1017.51
2019-03-31T09:52:29.585Z,1017.56
2019-03-31T09:53:29.575Z,1017.51
2019-03-31T09:54:29.565Z,1017.59
2019-03-31T09:55:29.580Z,1017.64
2019-03-31T09:56:29.544Z,1017.61
2019-03-31T09:57:29.534Z,1017.64
2019-03-31T09:58:29.523Z,1017.61
2019-03-31T09:59:29.511Z,1017.57
2019-03-31T10:00:29.525Z,1017.62
2019-03-31T10:01:29.489Z,1017.62
2019-03-31T10:02:29.480Z,1017.62
2019-03-31T10:03:29.473Z,1017.62
2019-03-31T10:04:29.457Z,1017.63
2019-03-31T10:05:29.470Z,1017.58
2019-03-31T10:06:30.741Z,1017.56
2019-03-31T10:07:29.426Z,1017.56
2019-03-31T10:08:29.416Z,1017.55
2019-03-31T10:09:29.408Z,1017.54
2019-03-31T10:10:29.419Z,1017.54
2019-03-31T10:11:29.383Z,1017.59
2019-03-31T10:12:29.373Z,1017.57
2019-03-31T10:13:29.361Z,1017.55
2019-03-31T10:14:29.350Z,1017.57
2019-03-31T10:15:29.377Z,1017.59
2019-03-31T10:16:29.328Z,1017.57
2019-03-31T10:17:29.316Z,1017.55
2019-03-31T10:18:29.307Z,1017.54
2019-03-31T10:19:29.296Z,1017.54
2019-03-31T10:20:31.421Z,1017.58
2019-03-31T10:21:29.357Z,1017.57
2019-03-31T10:22:29.264Z,1017.61
2019-03-31T10:23:29.254Z,1017.57
2019-03-31T10:24:29.241Z,1017.60
2019-03-31T10:25:29.230Z,1017.62
2019-03-31T10:26:32.339Z,1017.57
2019-03-31T10:27:29.233Z,1017.54
2019-03-31T10:28:29.198Z,1017.54
2019-03-31T10:29:29.190Z,1017.53
2019-03-31T10:30:29.174Z,1017.55
2019-03-31T10:31:29.163Z,1017.52
2019-03-31T10:32:29.177Z,1017.59
2019-03-31T10:33:29.142Z,1017.59
2019-03-31T10:34:29.130Z,1017.55
2019-03-31T10:35:29.121Z,1017.62
2019-03-31T10:36:29.110Z,1017.55
2019-03-31T10:37:29.137Z,1017.54
2019-03-31T10:38:29.088Z,1017.52
2019-03-31T10:39:29.078Z,1017.47
2019-03-31T10:40:29.067Z,1017.57
2019-03-31T10:41:31.008Z,1017.54
2019-03-31T10:42:29.063Z,1017.53
2019-03-31T10:43:29.060Z,1017.54
2019-03-31T10:44:29.028Z,1017.56
2019-03-31T10:45:29.013Z,1017.55
2019-03-31T10:46:29.004Z,1017.57
2019-03-31T10:47:28.993Z,1017.60
2019-03-31T10:48:29.008Z,1017.61
2019-03-31T10:49:28.970Z,1017.62
2019-03-31T10:50:28.961Z,1017.62
2019-03-31T10:51:28.953Z,1017.64
2019-03-31T10:52:28.938Z,1017.63
2019-03-31T10:53:28.965Z,1017.64
2019-03-31T10:54:28.920Z,1017.67
2019-03-31T10:55:28.910Z,1017.69
2019-03-31T10:56:28.896Z,1017.67
2019-03-31T10:57:28.885Z,1017.64
2019-03-31T10:58:28.874Z,1017.62
2019-03-31T10:59:28.887Z,1017.67
2019-03-31T11:00:28.853Z,1017.62
2019-03-31T11:01:28.842Z,1017.57
2019-03-31T11:02:28.832Z,1017.58
2019-03-31T11:03:28.825Z,1017.60
2019-03-31T11:04:28.836Z,1017.59
2019-03-31T11:05:28.808Z,1017.58
2019-03-31T11:06:28.790Z,1017.62
2019-03-31T11:07:28.780Z,1017.59
2019-03-31T11:08:28.767Z,1017.53
2019-03-31T11:09:28.781Z,1017.54
2019-03-31T11:10:28.746Z,1017.55
2019-03-31T11:11:28.733Z,1017.54
2019-03-31T11:12:28.724Z,1017.56
2019-03-31T11:13:28.713Z,1017.57
2019-03-31T11:14:28.739Z,1017.61
2019-03-31T11:15:28.691Z,1017.56
2019-03-31T11:16:28.681Z,1017.56
2019-03-31T11:17:28.671Z,1017.50
2019-03-31T11:18:28.658Z,1017.49
2019-03-31T11:19:28.647Z,1017.55
2019-03-31T11:20:28.674Z,1017.58
2019-03-31T11:21:28.627Z,1017.63
2019-03-31T11:22:28.622Z,1017.65
2019-03-31T11:23:28.605Z,1017.64
2019-03-31T11:24:28.594Z,1017.70
2019-03-31T11:25:29.413Z,1017.63
2019-03-31T11:26:28.576Z,1017.66
2019-03-31T11:27:28.564Z,1017.65
2019-03-31T11:28:28.552Z,1017.55
2019-03-31T11:29:28.541Z,1017.48
2019-03-31T11:30:28.556Z,1017.59
2019-03-31T11:31:29.419Z,1017.55
2019-03-31T11:32:28.509Z,1017.55
2019-03-31T11:33:28.496Z,1017.56
2019-03-31T11:34:28.486Z,1017.59
2019-03-31T11:35:43.421Z,1017.60
2019-03-31T11:36:28.463Z,1017.57
2019-03-31T11:37:28.452Z,1017.55
2019-03-31T11:38:28.442Z,1017.56
2019-03-31T11:39:28.432Z,1017.57
2019-03-31T11:40:28.419Z,1017.58
2019-03-31T11:41:28.446Z,1017.63
2019-03-31T11:42:28.398Z,1017.65
2019-03-31T11:43:28.386Z,1017.63
2019-03-31T11:44:28.478Z,1017.77
2019-03-31T11:45:28.364Z,1017.67
2019-03-31T11:46:28.366Z,1017.62
2019-03-31T11:47:28.366Z,1017.67
2019-03-31T11:48:28.331Z,1017.62
2019-03-31T11:49:28.320Z,1017.63
2019-03-31T11:50:28.310Z,1017.78
2019-03-31T11:51:28.296Z,1017.77
2019-03-31T11:52:28.319Z,1017.72
2019-03-31T11:53:28.286Z,1017.66
2019-03-31T11:54:28.268Z,1017.67
2019-03-31T11:55:28.255Z,1017.75
2019-03-31T11:56:28.246Z,1017.84
2019-03-31T11:57:28.268Z,1017.83
2019-03-31T11:58:28.223Z,1017.80
2019-03-31T11:59:28.211Z,1017.74
2019-03-31T12:00:28.204Z,1017.69
2019-03-31T12:01:28.189Z,1017.86
2019-03-31T12:02:28.188Z,1017.83
2019-03-31T12:03:30.929Z,1017.74
2019-03-31T12:04:28.159Z,1017.80
2019-03-31T12:05:28.151Z,1017.66